KDVT/DVT METAR and TAF weather

Enter ICAO airport designator
Station Type Date Time Source
KDVT METAR 2019/02/23 16:53 UTC NOAA

KDVT 231653Z 00000KT 10SM CLR 07/01 A3032 RMK AO2 SLP268 T00720011


Station Type Date Time Source
KDVT Decoded METAR 2019/02/23 16:53 UTC NOAA

PHOENIX-DEER VALLEY MUN, AZ, United States (KDVT) 33-41N 112-04W 443M
Feb 23, 2019 - 11:53 AM EST / 2019.02.23 1653 UTC
Wind: Calm:0
Visibility: 10 mile(s):0
Sky conditions: clear
Temperature: 45.0 F (7.2 C)
Dew Point: 34.0 F (1.1 C)
Relative Humidity: 65%
Pressure (altimeter): 30.32 in. Hg (1026 hPa)
ob: KDVT 231653Z 00000KT 10SM CLR 07/01 A3032 RMK AO2 SLP268 T00720011
cycle: 17

Station Type Date Time Source
KDVT TAF UTC NOAA

Error!


Example: see airport list